Time,TemperatureF,DewpointF,PressureIn,WindDirection,WindDirectionDegrees,WindSpeedMPH,WindSpeedGustMPH,Humidity,HourlyPrecipIn,Conditions,Clouds,dailyrainin,SoftwareType,DateUTC
2013-03-25 00:00:00,36.3,35.6,28.55,South,180,1.1,0.0,97,0.04,RA,SKC,0.71,WeatherDisplay:10.37,2013-03-25 04:00:00,
2013-03-25 00:05:00,36.3,35.6,28.55,South,180,0.0,0.0,97,0.02,RA,SKC,0.00,WeatherDisplay:10.37,2013-03-25 04:05:00,
2013-03-25 00:10:00,36.5,35.7,28.55,South,180,0.0,1.0,97,0.00,,SKC,0.00,WeatherDisplay:10.37,2013-03-25 04:10:00,
2013-03-25 00:15:00,36.5,35.7,28.54,South,180,1.1,0.0,97,0.02,,SKC,0.00,WeatherDisplay:10.37,2013-03-25 04:15:00,
2013-03-25 00:20:00,36.5,35.7,28.54,SSW,195,0.0,1.0,97,0.00,,SKC,0.00,WeatherDisplay:10.37,2013-03-25 04:20:00,
2013-03-25 00:25:00,36.5,35.7,28.53,South,180,1.1,0.0,97,0.01,,SKC,0.00,WeatherDisplay:10.37,2013-03-25 04:25:00,
2013-03-25 00:31:00,36.3,35.6,28.53,South,180,1.1,0.0,97,0.01,,SKC,0.00,WeatherDisplay:10.37,2013-03-25 04:31:00,
2013-03-25 00:36:00,36.3,35.6,28.53,South,180,1.1,0.0,97,0.01,,SKC,0.00,WeatherDisplay:10.37,2013-03-25 04:36:00,
2013-03-25 00:42:00,36.1,35.4,28.53,North,0,0.0,0.0,97,0.01,,SKC,0.00,WeatherDisplay:10.37,2013-03-25 04:42:00,
2013-03-25 00:47:00,36.1,35.4,28.54,North,0,0.0,0.0,97,0.01,,SKC,0.00,WeatherDisplay:10.37,2013-03-25 04:47:00,
2013-03-25 00:52:00,36.1,35.4,28.53,NNW,338,1.1,0.0,97,0.00,,SKC,0.00,WeatherDisplay:10.37,2013-03-25 04:52:00,
2013-03-25 00:57:00,36.1,35.4,28.53,NW,315,1.1,0.0,97,0.00,,SKC,0.00,WeatherDisplay:10.37,2013-03-25 04:57:00,
2013-03-25 01:02:00,36.1,35.4,28.53,SW,225,0.0,0.0,97,0.00,,SKC,0.00,WeatherDisplay:10.37,2013-03-25 05:02:00,
2013-03-25 01:08:00,36.3,35.6,28.53,SW,225,0.0,0.0,97,0.00,,SKC,0.00,WeatherDisplay:10.37,2013-03-25 05:08:00,
2013-03-25 01:13:00,36.3,35.6,28.53,SW,225,1.1,0.0,97,0.00,,SKC,0.00,WeatherDisplay:10.37,2013-03-25 05:13:00,
2013-03-25 01:18:00,36.3,35.6,28.53,North,0,1.1,0.0,97,0.00,,SKC,0.00,WeatherDisplay:10.37,2013-03-25 05:18:00,
2013-03-25 01:23:00,36.1,35.4,28.53,SE,135,1.1,0.0,97,0.00,,SKC,0.00,WeatherDisplay:10.37,2013-03-25 05:23:00,
2013-03-25 01:28:00,36.3,35.6,28.53,South,180,1.1,0.0,97,0.00,,SKC,0.00,WeatherDisplay:10.37,2013-03-25 05:28:00,
2013-03-25 01:33:00,36.3,35.6,28.52,South,180,1.1,0.0,97,0.00,,SKC,0.00,WeatherDisplay:10.37,2013-03-25 05:33:00,
2013-03-25 01:38:00,36.3,35.6,28.52,SE,135,0.0,0.0,97,0.00,,SKC,0.00,WeatherDisplay:10.37,2013-03-25 05:38:00,
2013-03-25 01:43:00,36.3,35.6,28.51,West,270,0.0,0.0,97,0.00,,SKC,0.00,WeatherDisplay:10.37,2013-03-25 05:43:00,
2013-03-25 01:48:00,36.3,35.6,28.51,SE,135,1.1,0.0,97,0.00,,SKC,0.00,WeatherDisplay:10.37,2013-03-25 05:48:00,
2013-03-25 01:53:00,36.3,35.6,28.51,SE,135,1.1,0.0,97,0.00,,SKC,0.00,WeatherDisplay:10.37,2013-03-25 05:53:00,
2013-03-25 01:58:00,36.1,35.4,28.51,NW,315,0.0,0.0,97,0.00,,SKC,0.00,WeatherDisplay:10.37,2013-03-25 05:58:00,
2013-03-25 02:03:00,36.1,35.4,28.52,NW,315,0.0,0.0,97,0.00,,SKC,0.00,WeatherDisplay:10.37,2013-03-25 06:03:00,
2013-03-25 02:08:00,36.1,35.4,28.52,NW,315,0.0,0.0,97,0.00,,SKC,0.00,WeatherDisplay:10.37,2013-03-25 06:08:00,
2013-03-25 02:13:00,36.1,35.4,28.53,NW,315,1.1,0.0,97,0.00,,SKC,0.00,WeatherDisplay:10.37,2013-03-25 06:13:00,
2013-03-25 02:19:00,36.1,35.4,28.53,NW,315,1.1,0.0,97,0.00,,SKC,0.00,WeatherDisplay:10.37,2013-03-25 06:19:00,
2013-03-25 02:24:00,36.1,35.4,28.53,NW,315,1.1,0.0,97,0.00,,SKC,0.00,WeatherDisplay:10.37,2013-03-25 06:24:00,
2013-03-25 02:29:00,36.1,35.4,28.53,North,0,1.1,0.0,97,0.00,,SKC,0.00,WeatherDisplay:10.37,2013-03-25 06:29:00,
2013-03-25 02:35:00,36.1,35.4,28.53,NW,315,1.1,0.0,97,0.00,,SKC,0.00,WeatherDisplay:10.37,2013-03-25 06:35:00,
2013-03-25 02:40:00,36.1,35.4,28.53,North,0,1.1,0.0,97,0.00,,SKC,0.00,WeatherDisplay:10.37,2013-03-25 06:40:00,
2013-03-25 02:45:00,36.1,35.4,28.53,North,0,1.1,0.0,97,0.01,RA,SKC,0.01,WeatherDisplay:10.37,2013-03-25 06:45:00,
2013-03-25 02:50:00,36.1,35.4,28.52,South,180,0.0,0.0,97,0.01,RA,SKC,0.01,WeatherDisplay:10.37,2013-03-25 06:50:00,
2013-03-25 02:55:00,36.1,35.4,28.53,South,180,0.0,0.0,97,0.01,,SKC,0.01,WeatherDisplay:10.37,2013-03-25 06:55:00,
2013-03-25 03:00:00,36.1,35.4,28.53,South,180,0.0,0.0,97,0.01,,SKC,0.01,WeatherDisplay:10.37,2013-03-25 07:00:00,
2013-03-25 03:05:00,36.1,35.4,28.52,West,270,0.0,0.0,97,0.01,,SKC,0.01,WeatherDisplay:10.37,2013-03-25 07:05:00,
2013-03-25 03:10:00,36.1,35.4,28.52,NW,315,1.1,0.0,97,0.01,,SKC,0.01,WeatherDisplay:10.37,2013-03-25 07:10:00,
2013-03-25 03:15:00,36.0,35.2,28.52,NW,315,1.1,0.0,97,0.01,,SKC,0.01,WeatherDisplay:10.37,2013-03-25 07:15:00,
2013-03-25 03:20:00,36.1,35.4,28.52,West,270,0.0,0.0,97,0.01,,SKC,0.01,WeatherDisplay:10.37,2013-03-25 07:20:00,
2013-03-25 03:25:00,36.0,35.2,28.52,NW,315,1.1,0.0,97,0.01,,SKC,0.01,WeatherDisplay:10.37,2013-03-25 07:25:00,
2013-03-25 03:30:00,36.1,35.4,28.52,NW,315,0.0,0.0,97,0.01,,SKC,0.01,WeatherDisplay:10.37,2013-03-25 07:30:00,
2013-03-25 03:35:00,36.1,35.4,28.52,South,180,1.1,0.0,97,0.01,,SKC,0.01,WeatherDisplay:10.37,2013-03-25 07:35:00,
2013-03-25 03:40:00,36.1,35.4,28.51,SW,225,1.1,0.0,97,0.01,,SKC,0.01,WeatherDisplay:10.37,2013-03-25 07:40:00,
2013-03-25 03:45:00,36.0,35.2,28.51,NW,315,1.1,0.0,97,0.00,,SKC,0.01,WeatherDisplay:10.37,2013-03-25 07:45:00,
2013-03-25 03:50:00,36.0,35.2,28.51,NW,315,1.1,0.0,97,0.00,,SKC,0.01,WeatherDisplay:10.37,2013-03-25 07:50:00,
2013-03-25 03:55:00,36.0,35.2,28.51,South,180,0.0,0.0,97,0.00,,SKC,0.01,WeatherDisplay:10.37,2013-03-25 07:55:00,
2013-03-25 04:00:00,36.0,35.2,28.51,NW,315,1.1,0.0,97,0.00,,SKC,0.01,WeatherDisplay:10.37,2013-03-25 08:00:00,
2013-03-25 04:05:00,36.0,35.2,28.50,NW,315,1.1,0.0,97,0.00,,SKC,0.01,WeatherDisplay:10.37,2013-03-25 08:05:00,
2013-03-25 04:10:00,36.0,35.2,28.50,NW,315,1.1,0.0,97,0.00,,SKC,0.01,WeatherDisplay:10.37,2013-03-25 08:10:00,
2013-03-25 04:15:00,36.0,35.2,28.50,SW,225,0.0,0.0,97,0.00,,SKC,0.01,WeatherDisplay:10.37,2013-03-25 08:15:00,
2013-03-25 04:20:00,35.8,35.0,28.50,West,270,1.1,0.0,97,0.00,,SKC,0.01,WeatherDisplay:10.37,2013-03-25 08:20:00,
2013-03-25 04:25:00,35.8,35.0,28.50,NW,315,1.1,0.0,97,0.00,,SKC,0.01,WeatherDisplay:10.37,2013-03-25 08:25:00,
2013-03-25 04:30:00,35.6,34.8,28.50,NE,45,0.0,0.0,97,0.00,,SKC,0.01,WeatherDisplay:10.37,2013-03-25 08:30:00,
2013-03-25 04:35:00,35.4,34.7,28.50,North,0,1.1,0.0,97,0.00,,SKC,0.01,WeatherDisplay:10.37,2013-03-25 08:35:00,
2013-03-25 04:40:00,35.4,34.7,28.50,South,180,1.1,0.0,97,0.00,,SKC,0.01,WeatherDisplay:10.37,2013-03-25 08:40:00,
2013-03-25 04:45:00,35.4,34.7,28.50,NW,315,1.1,0.0,97,0.00,,SKC,0.01,WeatherDisplay:10.37,2013-03-25 08:45:00,
2013-03-25 04:50:00,35.6,34.8,28.50,SW,225,1.1,0.0,97,0.00,,SKC,0.01,WeatherDisplay:10.37,2013-03-25 08:50:00,
2013-03-25 04:55:00,35.6,34.8,28.50,South,180,1.1,0.0,97,0.00,,SKC,0.01,WeatherDisplay:10.37,2013-03-25 08:55:00,
2013-03-25 05:00:00,35.6,34.8,28.49,West,270,1.1,0.0,97,0.00,,SKC,0.01,WeatherDisplay:10.37,2013-03-25 09:00:00,
2013-03-25 05:05:00,35.6,34.8,28.50,North,0,1.1,0.0,97,0.00,,SKC,0.01,WeatherDisplay:10.37,2013-03-25 09:05:00,
2013-03-25 05:10:00,35.6,34.8,28.50,West,270,1.1,0.0,97,0.00,,SKC,0.01,WeatherDisplay:10.37,2013-03-25 09:10:00,
2013-03-25 05:15:00,35.4,34.7,28.50,North,0,1.1,0.0,97,0.00,,SKC,0.01,WeatherDisplay:10.37,2013-03-25 09:15:00,
2013-03-25 05:20:00,35.6,34.8,28.50,North,0,1.1,0.0,97,0.00,,SKC,0.01,WeatherDisplay:10.37,2013-03-25 09:20:00,
2013-03-25 05:25:00,35.6,34.8,28.50,North,0,1.1,0.0,97,0.00,,SKC,0.01,WeatherDisplay:10.37,2013-03-25 09:25:00,
2013-03-25 05:30:00,35.8,35.0,28.50,NNW,346,0.0,1.0,97,0.00,,SKC,0.01,WeatherDisplay:10.37,2013-03-25 09:30:00,
2013-03-25 05:35:00,35.8,35.0,28.50,North,0,0.0,0.0,97,0.00,,SKC,0.01,WeatherDisplay:10.37,2013-03-25 09:35:00,
2013-03-25 05:40:00,36.0,35.2,28.50,North,0,0.0,0.0,97,0.00,,SKC,0.01,WeatherDisplay:10.37,2013-03-25 09:40:00,
2013-03-25 05:45:00,35.8,35.0,28.50,SW,225,0.0,0.0,97,0.00,,SKC,0.01,WeatherDisplay:10.37,2013-03-25 09:45:00,
2013-03-25 05:50:00,35.8,35.0,28.51,NNW,338,0.0,1.0,97,0.01,RA,SKC,0.02,WeatherDisplay:10.37,2013-03-25 09:50:00,
2013-03-25 05:55:00,35.8,35.0,28.51,SW,225,1.1,0.0,97,0.01,RA,SKC,0.02,WeatherDisplay:10.37,2013-03-25 09:55:00,
2013-03-25 06:00:00,35.8,35.0,28.51,SW,230,0.0,1.0,97,0.00,,SKC,0.02,WeatherDisplay:10.37,2013-03-25 10:00:00,
2013-03-25 06:05:00,35.8,35.0,28.50,SW,225,1.1,0.0,97,0.01,,SKC,0.02,WeatherDisplay:10.37,2013-03-25 10:05:00,
2013-03-25 06:10:00,35.6,34.8,28.51,WSW,246,0.0,1.0,97,0.00,,SKC,0.02,WeatherDisplay:10.37,2013-03-25 10:10:00,
2013-03-25 06:15:00,35.6,34.8,28.51,NW,315,0.0,0.0,97,0.01,,SKC,0.02,WeatherDisplay:10.37,2013-03-25 10:15:00,
2013-03-25 06:20:00,35.6,34.8,28.51,WSW,257,0.0,2.0,97,0.00,,SKC,0.02,WeatherDisplay:10.37,2013-03-25 10:20:00,
2013-03-25 06:25:00,35.6,34.8,28.51,North,0,1.1,0.0,97,0.01,,SKC,0.02,WeatherDisplay:10.37,2013-03-25 10:25:00,
2013-03-25 06:30:00,35.4,34.7,28.51,NNW,344,0.0,1.0,97,0.00,,SKC,0.02,WeatherDisplay:10.37,2013-03-25 10:30:00,
2013-03-25 06:35:00,35.4,34.7,28.51,North,0,0.0,0.0,97,0.01,,SKC,0.02,WeatherDisplay:10.37,2013-03-25 10:35:00,
2013-03-25 06:40:00,35.2,34.5,28.51,SE,135,0.0,0.0,97,0.01,,SKC,0.02,WeatherDisplay:10.37,2013-03-25 10:40:00,
2013-03-25 06:45:00,35.2,34.5,28.52,North,0,1.1,0.0,97,0.01,,SKC,0.02,WeatherDisplay:10.37,2013-03-25 10:45:00,
2013-03-25 06:50:00,35.1,34.3,28.52,SE,143,0.0,2.0,97,0.00,,SKC,0.02,WeatherDisplay:10.37,2013-03-25 10:50:00,
2013-03-25 06:55:00,35.1,34.3,28.52,SE,135,1.1,0.0,97,0.00,,SKC,0.02,WeatherDisplay:10.37,2013-03-25 10:55:00,
2013-03-25 07:00:00,35.1,34.3,28.52,North,0,1.1,0.0,97,0.00,,SKC,0.02,WeatherDisplay:10.37,2013-03-25 11:00:00,
2013-03-25 07:05:00,35.2,34.5,28.52,North,0,0.0,0.0,97,0.00,,SKC,0.02,WeatherDisplay:10.37,2013-03-25 11:05:00,
2013-03-25 07:10:00,35.2,34.5,28.52,East,90,1.1,0.0,97,0.00,,SKC,0.02,WeatherDisplay:10.37,2013-03-25 11:10:00,
2013-03-25 07:15:00,35.4,34.7,28.53,North,0,1.1,0.0,97,0.00,,SKC,0.02,WeatherDisplay:10.37,2013-03-25 11:15:00,
2013-03-25 07:20:00,35.6,34.6,28.53,East,90,0.0,0.0,96,0.00,,SKC,0.02,WeatherDisplay:10.37,2013-03-25 11:20:00,
2013-03-25 07:25:00,35.6,34.0,28.53,North,0,1.1,0.0,94,0.00,,SKC,0.02,WeatherDisplay:10.37,2013-03-25 11:25:00,
2013-03-25 07:30:00,35.8,33.4,28.53,South,180,0.0,0.0,91,0.00,,SKC,0.02,WeatherDisplay:10.37,2013-03-25 11:30:00,
2013-03-25 07:35:00,35.8,32.9,28.53,NW,315,1.1,0.0,89,0.00,,SKC,0.02,WeatherDisplay:10.37,2013-03-25 11:35:00,
2013-03-25 07:40:00,35.6,31.8,28.54,SW,225,0.0,0.0,86,0.00,,SKC,0.02,WeatherDisplay:10.37,2013-03-25 11:40:00,
2013-03-25 07:45:00,35.6,30.9,28.54,NE,45,0.0,0.0,83,0.00,,SKC,0.02,WeatherDisplay:10.37,2013-03-25 11:45:00,
2013-03-25 07:50:00,35.6,30.6,28.54,NE,45,0.0,0.0,82,0.00,,SKC,0.02,WeatherDisplay:10.37,2013-03-25 11:50:00,
2013-03-25 07:55:00,35.6,30.6,28.54,NE,45,1.1,0.0,82,0.00,,SKC,0.02,WeatherDisplay:10.37,2013-03-25 11:55:00,
2013-03-25 08:00:00,35.6,29.7,28.54,South,180,1.1,0.0,79,0.00,,SKC,0.02,WeatherDisplay:10.37,2013-03-25 12:00:00,
2013-03-25 08:06:00,36.0,30.1,28.55,SW,225,0.0,0.0,79,0.00,,SKC,0.02,WeatherDisplay:10.37,2013-03-25 12:06:00,
2013-03-25 08:11:00,36.5,30.9,28.55,SW,225,0.0,0.0,80,0.00,,SKC,0.02,WeatherDisplay:10.37,2013-03-25 12:11:00,
2013-03-25 08:16:00,36.9,31.6,28.55,SW,225,0.0,0.0,81,0.00,,SKC,0.02,WeatherDisplay:10.37,2013-03-25 12:16:00,
2013-03-25 08:21:00,36.9,31.6,28.56,NW,315,0.0,0.0,81,0.00,,SKC,0.02,WeatherDisplay:10.37,2013-03-25 12:21:00,
2013-03-25 08:26:00,36.9,31.0,28.56,South,180,0.0,0.0,79,0.00,,SKC,0.02,WeatherDisplay:10.37,2013-03-25 12:26:00,
2013-03-25 08:31:00,36.9,30.6,28.56,NW,315,0.0,0.0,78,0.00,,SKC,0.02,WeatherDisplay:10.37,2013-03-25 12:31:00,
2013-03-25 08:36:00,36.9,30.6,28.56,NW,315,0.0,0.0,78,0.00,,SKC,0.02,WeatherDisplay:10.37,2013-03-25 12:36:00,
2013-03-25 08:41:00,36.7,28.2,28.57,SW,225,0.0,0.0,71,0.00,,SKC,0.02,WeatherDisplay:10.37,2013-03-25 12:41:00,
2013-03-25 08:46:00,36.9,30.0,28.57,SE,135,1.1,0.0,76,0.00,,SKC,0.02,WeatherDisplay:10.37,2013-03-25 12:46:00,
2013-03-25 08:51:00,37.0,29.8,28.56,North,0,0.0,0.0,75,0.00,,SKC,0.02,WeatherDisplay:10.37,2013-03-25 12:51:00,
2013-03-25 08:57:00,37.4,30.2,28.56,East,90,1.1,0.0,75,0.00,,SKC,0.02,WeatherDisplay:10.37,2013-03-25 12:57:00,
2013-03-25 09:02:00,38.1,30.6,28.56,NNW,338,0.0,0.0,74,0.00,,SKC,0.02,WeatherDisplay:10.37,2013-03-25 13:02:00,
2013-03-25 09:07:00,40.5,30.4,28.56,North,0,0.0,0.0,67,0.00,,SKC,0.02,WeatherDisplay:10.37,2013-03-25 13:07:00,
2013-03-25 09:12:00,42.1,30.8,28.56,North,0,0.0,0.0,64,0.00,,SKC,0.02,WeatherDisplay:10.37,2013-03-25 13:12:00,
2013-03-25 09:17:00,42.1,29.2,28.57,NW,315,0.0,0.0,60,0.00,,SKC,0.02,WeatherDisplay:10.37,2013-03-25 13:17:00,
2013-03-25 09:22:00,42.3,29.4,28.56,NW,315,0.0,0.0,60,0.00,,SKC,0.02,WeatherDisplay:10.37,2013-03-25 13:22:00,
2013-03-25 09:27:00,43.3,30.8,28.57,North,0,0.0,0.0,61,0.00,,SKC,0.02,WeatherDisplay:10.37,2013-03-25 13:27:00,
2013-03-25 09:32:00,44.1,29.4,28.57,SW,225,0.0,0.0,56,0.00,,SKC,0.02,WeatherDisplay:10.37,2013-03-25 13:32:00,
2013-03-25 09:37:00,43.5,28.0,28.57,North,0,0.0,0.0,54,0.00,,SKC,0.02,WeatherDisplay:10.37,2013-03-25 13:37:00,
2013-03-25 09:42:00,44.4,28.3,28.57,NE,45,0.0,0.0,53,0.00,,SKC,0.02,WeatherDisplay:10.37,2013-03-25 13:42:00,
2013-03-25 09:47:00,45.3,28.7,28.56,North,0,0.0,0.0,52,0.00,,SKC,0.02,WeatherDisplay:10.37,2013-03-25 13:47:00,
2013-03-25 09:52:00,44.8,28.2,28.57,South,180,0.0,0.0,52,0.00,,SKC,0.02,WeatherDisplay:10.37,2013-03-25 13:52:00,
2013-03-25 09:57:00,46.4,31.1,28.57,NW,315,0.0,0.0,55,0.00,,SKC,0.02,WeatherDisplay:10.37,2013-03-25 13:57:00,
2013-03-25 10:02:00,46.6,30.8,28.57,North,0,0.0,0.0,54,0.00,,SKC,0.02,WeatherDisplay:10.37,2013-03-25 14:02:00,
2013-03-25 10:07:00,47.1,29.4,28.57,NW,315,0.0,0.0,50,0.00,,SKC,0.02,WeatherDisplay:10.37,2013-03-25 14:07:00,
2013-03-25 10:12:00,46.2,27.1,28.57,NW,315,0.0,0.0,47,0.00,,SKC,0.02,WeatherDisplay:10.37,2013-03-25 14:12:00,
2013-03-25 10:17:00,45.5,24.8,28.57,West,270,0.0,0.0,44,0.00,,SKC,0.02,WeatherDisplay:10.37,2013-03-25 14:17:00,
2013-03-25 10:22:00,46.2,28.1,28.57,SW,225,0.0,0.0,49,0.00,,SKC,0.02,WeatherDisplay:10.37,2013-03-25 14:22:00,
2013-03-25 10:27:00,46.6,28.9,28.57,NNW,338,0.0,0.0,50,0.00,,SKC,0.02,WeatherDisplay:10.37,2013-03-25 14:27:00,
2013-03-25 10:32:00,46.6,28.9,28.58,NNW,338,0.0,0.0,50,0.00,,SKC,0.02,WeatherDisplay:10.37,2013-03-25 14:32:00,
2013-03-25 10:37:00,46.9,26.7,28.57,South,180,0.0,0.0,45,0.00,,SKC,0.02,WeatherDisplay:10.37,2013-03-25 14:37:00,
2013-03-25 10:42:00,47.8,28.0,28.57,East,90,0.0,0.0,46,0.00,,SKC,0.02,WeatherDisplay:10.37,2013-03-25 14:42:00,
2013-03-25 10:47:00,47.8,28.0,28.57,East,90,0.0,0.0,46,0.00,,SKC,0.02,WeatherDisplay:10.37,2013-03-25 14:47:00,
2013-03-25 10:53:00,48.4,27.4,28.58,SW,225,0.0,0.0,44,0.00,,SKC,0.02,WeatherDisplay:10.37,2013-03-25 14:53:00,
2013-03-25 10:58:00,46.6,26.4,28.57,NW,315,0.0,0.0,45,0.00,,SKC,0.02,WeatherDisplay:10.37,2013-03-25 14:58:00,
2013-03-25 11:03:00,45.0,23.8,28.58,West,270,0.0,0.0,43,0.00,,SKC,0.02,WeatherDisplay:10.37,2013-03-25 15:03:00,
2013-03-25 11:08:00,44.2,23.1,28.58,West,270,0.0,0.0,43,0.00,,SKC,0.02,WeatherDisplay:10.37,2013-03-25 15:08:00,
2013-03-25 11:13:00,44.2,23.1,28.58,West,270,0.0,0.0,43,0.00,,SKC,0.02,WeatherDisplay:10.37,2013-03-25 15:13:00,
2013-03-25 11:18:00,43.9,23.9,28.58,NW,315,0.0,0.0,45,0.00,,SKC,0.02,WeatherDisplay:10.37,2013-03-25 15:18:00,
2013-03-25 11:23:00,42.8,23.9,28.58,NE,45,0.0,0.0,47,0.00,,SKC,0.02,WeatherDisplay:10.37,2013-03-25 15:23:00,
2013-03-25 11:28:00,42.8,24.9,28.58,East,90,0.0,0.0,49,0.00,,SKC,0.02,WeatherDisplay:10.37,2013-03-25 15:28:00,
2013-03-25 11:33:00,42.8,24.4,28.58,North,0,0.0,0.0,48,0.00,,SKC,0.02,WeatherDisplay:10.37,2013-03-25 15:33:00,
2013-03-25 11:38:00,42.4,23.6,28.58,West,270,0.0,0.0,47,0.00,,SKC,0.02,WeatherDisplay:10.37,2013-03-25 15:38:00,
2013-03-25 11:43:00,42.6,22.7,28.59,NW,315,0.0,0.0,45,0.00,,SKC,0.02,WeatherDisplay:10.37,2013-03-25 15:43:00,
2013-03-25 11:48:00,42.4,22.0,28.59,NW,315,0.0,0.0,44,0.00,,SKC,0.02,WeatherDisplay:10.37,2013-03-25 15:48:00,
2013-03-25 11:53:00,42.4,22.0,28.59,NW,315,0.0,0.0,44,0.00,,SKC,0.02,WeatherDisplay:10.37,2013-03-25 15:53:00,
2013-03-25 11:58:00,43.3,23.9,28.59,South,180,0.0,0.0,46,0.00,,SKC,0.02,WeatherDisplay:10.37,2013-03-25 15:58:00,
2013-03-25 12:03:00,44.6,24.5,28.60,North,0,0.0,0.0,45,0.00,,SKC,0.02,WeatherDisplay:10.37,2013-03-25 16:03:00,
2013-03-25 12:08:00,45.1,25.0,28.60,SW,225,0.0,0.0,45,0.00,,SKC,0.02,WeatherDisplay:10.37,2013-03-25 16:08:00,
2013-03-25 12:13:00,44.8,23.6,28.61,North,0,0.0,0.0,43,0.00,,SKC,0.02,WeatherDisplay:10.37,2013-03-25 16:13:00,
2013-03-25 12:18:00,45.3,25.7,28.61,South,180,0.0,0.0,46,0.00,,SKC,0.02,WeatherDisplay:10.37,2013-03-25 16:18:00,
2013-03-25 12:23:00,45.3,25.7,28.61,West,270,0.0,0.0,46,0.00,,SKC,0.02,WeatherDisplay:10.37,2013-03-25 16:23:00,
2013-03-25 12:29:00,46.4,26.2,28.61,North,0,0.0,0.0,45,0.00,,SKC,0.02,WeatherDisplay:10.37,2013-03-25 16:29:00,
2013-03-25 12:34:00,47.3,27.0,28.61,North,0,0.0,0.0,45,0.00,,SKC,0.02,WeatherDisplay:10.37,2013-03-25 16:34:00,
2013-03-25 12:39:00,47.5,27.7,28.61,SE,135,0.0,0.0,46,0.00,,SKC,0.02,WeatherDisplay:10.37,2013-03-25 16:39:00,
2013-03-25 12:44:00,46.4,26.2,28.61,NE,45,0.0,0.0,45,0.00,,SKC,0.02,WeatherDisplay:10.37,2013-03-25 16:44:00,
2013-03-25 12:49:00,46.8,24.3,28.61,North,0,0.0,0.0,41,0.00,,SKC,0.02,WeatherDisplay:10.37,2013-03-25 16:49:00,
2013-03-25 12:54:00,46.8,26.5,28.61,West,270,0.0,0.0,45,0.00,,SKC,0.02,WeatherDisplay:10.37,2013-03-25 16:54:00,
2013-03-25 12:59:00,45.9,24.6,28.61,NE,45,0.0,0.0,43,0.00,,SKC,0.02,WeatherDisplay:10.37,2013-03-25 16:59:00,
2013-03-25 13:04:00,44.4,24.4,28.61,NW,315,0.0,0.0,45,0.00,,SKC,0.02,WeatherDisplay:10.37,2013-03-25 17:04:00,
2013-03-25 13:09:00,43.9,25.4,28.61,South,180,0.0,0.0,48,0.00,,SKC,0.02,WeatherDisplay:10.37,2013-03-25 17:09:00,
2013-03-25 13:14:00,44.2,24.7,28.61,South,180,0.0,0.0,46,0.00,,SKC,0.02,WeatherDisplay:10.37,2013-03-25 17:14:00,
2013-03-25 13:19:00,43.7,25.3,28.61,NE,45,0.0,0.0,48,0.00,,SKC,0.02,WeatherDisplay:10.37,2013-03-25 17:19:00,
2013-03-25 13:24:00,43.7,25.3,28.62,SE,135,0.0,0.0,48,0.00,,SKC,0.02,WeatherDisplay:10.37,2013-03-25 17:24:00,
2013-03-25 13:29:00,42.8,24.9,28.62,NE,45,0.0,0.0,49,0.00,,SKC,0.02,WeatherDisplay:10.37,2013-03-25 17:29:00,
2013-03-25 13:34:00,42.4,26.0,28.62,East,90,0.0,0.0,52,0.00,,SKC,0.02,WeatherDisplay:10.37,2013-03-25 17:34:00,
2013-03-25 13:39:00,42.3,23.9,28.62,North,0,0.0,0.0,48,0.00,,SKC,0.02,WeatherDisplay:10.37,2013-03-25 17:39:00,
2013-03-25 13:44:00,42.1,23.8,28.62,North,0,0.0,0.0,48,0.00,,SKC,0.02,WeatherDisplay:10.37,2013-03-25 17:44:00,
2013-03-25 13:49:00,43.0,25.6,28.61,North,0,0.0,0.0,50,0.00,,SKC,0.02,WeatherDisplay:10.37,2013-03-25 17:49:00,
2013-03-25 13:54:00,42.4,25.1,28.62,East,90,0.0,0.0,50,0.00,,SKC,0.02,WeatherDisplay:10.37,2013-03-25 17:54:00,
2013-03-25 13:59:00,42.3,24.9,28.61,SW,225,0.0,0.0,50,0.00,,SKC,0.02,WeatherDisplay:10.37,2013-03-25 17:59:00,
2013-03-25 14:04:00,44.2,25.3,28.62,WNW,292,0.0,0.0,47,0.00,,SKC,0.02,WeatherDisplay:10.37,2013-03-25 18:04:00,
2013-03-25 14:09:00,43.7,24.2,28.61,East,90,0.0,0.0,46,0.00,,SKC,0.02,WeatherDisplay:10.37,2013-03-25 18:09:00,
2013-03-25 14:14:00,44.2,24.7,28.61,South,180,0.0,0.0,46,0.00,,SKC,0.02,WeatherDisplay:10.37,2013-03-25 18:14:00,
2013-03-25 14:19:00,45.1,25.6,28.61,WNW,292,0.0,0.0,46,0.00,,SKC,0.02,WeatherDisplay:10.37,2013-03-25 18:19:00,
2013-03-25 14:24:00,46.9,27.7,28.61,NE,45,0.0,0.0,47,0.00,,SKC,0.02,WeatherDisplay:10.37,2013-03-25 18:24:00,
2013-03-25 14:29:00,47.1,27.4,28.60,East,90,0.0,0.0,46,0.00,,SKC,0.02,WeatherDisplay:10.37,2013-03-25 18:29:00,
2013-03-25 14:35:00,47.1,26.8,28.60,SSE,158,0.0,0.0,45,0.00,,SKC,0.02,WeatherDisplay:10.37,2013-03-25 18:35:00,
2013-03-25 14:40:00,46.2,24.9,28.60,NW,315,0.0,0.0,43,0.00,,SKC,0.02,WeatherDisplay:10.37,2013-03-25 18:40:00,
2013-03-25 14:45:00,47.5,27.2,28.60,WNW,292,0.0,0.0,45,0.00,,SKC,0.02,WeatherDisplay:10.37,2013-03-25 18:45:00,
2013-03-25 14:50:00,47.5,27.2,28.60,WNW,292,0.0,0.0,45,0.00,,SKC,0.02,WeatherDisplay:10.37,2013-03-25 18:50:00,
2013-03-25 14:55:00,46.9,26.7,28.60,West,270,0.0,0.0,45,0.00,,SKC,0.02,WeatherDisplay:10.37,2013-03-25 18:55:00,
2013-03-25 15:00:00,46.8,25.4,28.60,North,0,0.0,0.0,43,0.00,,SKC,0.02,WeatherDisplay:10.37,2013-03-25 19:00:00,
2013-03-25 15:05:00,46.6,25.3,28.60,SW,225,0.0,0.0,43,0.00,,SKC,0.02,WeatherDisplay:10.37,2013-03-25 19:05:00,
2013-03-25 15:10:00,48.0,27.1,28.60,NE,45,0.0,0.0,44,0.00,,SKC,0.02,WeatherDisplay:10.37,2013-03-25 19:10:00,
2013-03-25 15:15:00,46.2,24.9,28.60,SW,225,0.0,0.0,43,0.00,,SKC,0.02,WeatherDisplay:10.37,2013-03-25 19:15:00,
2013-03-25 15:20:00,45.5,24.3,28.59,NE,45,0.0,0.0,43,0.00,,SKC,0.02,WeatherDisplay:10.37,2013-03-25 19:20:00,
2013-03-25 15:25:00,45.5,24.3,28.60,NE,45,0.0,0.0,43,0.00,,SKC,0.02,WeatherDisplay:10.37,2013-03-25 19:25:00,
2013-03-25 15:30:00,43.0,24.6,28.61,North,0,0.0,0.0,48,0.00,,SKC,0.02,WeatherDisplay:10.37,2013-03-25 19:30:00,
2013-03-25 15:35:00,42.3,24.4,28.61,North,8,0.0,0.0,49,0.00,,SKC,0.02,WeatherDisplay:10.37,2013-03-25 19:35:00,
2013-03-25 15:40:00,42.1,24.8,28.60,SE,135,0.0,0.0,50,0.00,,SKC,0.02,WeatherDisplay:10.37,2013-03-25 19:40:00,
2013-03-25 15:45:00,43.3,27.3,28.60,East,90,0.0,0.0,53,0.00,,SKC,0.02,WeatherDisplay:10.37,2013-03-25 19:45:00,
2013-03-25 15:50:00,43.9,27.4,28.60,NW,315,0.0,0.0,52,0.00,,SKC,0.02,WeatherDisplay:10.37,2013-03-25 19:50:00,
2013-03-25 15:55:00,43.9,25.4,28.60,South,180,0.0,0.0,48,0.00,,SKC,0.02,WeatherDisplay:10.37,2013-03-25 19:55:00,
2013-03-25 16:00:00,43.9,24.9,28.60,SW,225,0.0,0.0,47,0.00,,SKC,0.02,WeatherDisplay:10.37,2013-03-25 20:00:00,
2013-03-25 16:05:00,43.9,24.9,28.60,SW,225,0.0,0.0,47,0.00,,SKC,0.02,WeatherDisplay:10.37,2013-03-25 20:05:00,
2013-03-25 16:10:00,43.2,25.3,28.61,North,0,0.0,0.0,49,0.00,,SKC,0.02,WeatherDisplay:10.37,2013-03-25 20:10:00,
2013-03-25 16:15:00,42.8,24.4,28.61,North,0,0.0,0.0,48,0.00,,SKC,0.02,WeatherDisplay:10.37,2013-03-25 20:15:00,
2013-03-25 16:20:00,42.8,24.4,28.61,North,0,0.0,0.0,48,0.00,,SKC,0.02,WeatherDisplay:10.37,2013-03-25 20:20:00,
2013-03-25 16:25:00,42.4,24.6,28.62,SE,135,0.0,0.0,49,0.00,,SKC,0.02,WeatherDisplay:10.37,2013-03-25 20:25:00,
2013-03-25 16:30:00,42.1,25.7,28.62,North,0,0.0,0.0,52,0.00,,SKC,0.02,WeatherDisplay:10.37,2013-03-25 20:30:00,
2013-03-25 16:35:00,41.9,26.9,28.62,East,90,0.0,0.0,55,0.00,,SKC,0.02,WeatherDisplay:10.37,2013-03-25 20:35:00,
2013-03-25 16:40:00,42.1,27.5,28.62,South,180,0.0,0.0,56,0.00,,SKC,0.02,WeatherDisplay:10.37,2013-03-25 20:40:00,
2013-03-25 16:45:00,42.1,27.5,28.62,South,180,0.0,0.0,56,0.00,,SKC,0.02,WeatherDisplay:10.37,2013-03-25 20:45:00,
2013-03-25 16:50:00,42.3,28.5,28.63,NE,45,0.0,0.0,58,0.00,,SKC,0.02,WeatherDisplay:10.37,2013-03-25 20:50:00,
2013-03-25 16:55:00,42.4,28.3,28.64,WNW,292,0.0,0.0,57,0.00,,SKC,0.02,WeatherDisplay:10.37,2013-03-25 20:55:00,
2013-03-25 17:00:00,42.3,26.3,28.63,SE,135,0.0,0.0,53,0.00,,SKC,0.02,WeatherDisplay:10.37,2013-03-25 21:00:00,
2013-03-25 17:05:00,42.3,26.3,28.64,SE,135,0.0,0.0,53,0.00,,SKC,0.02,WeatherDisplay:10.37,2013-03-25 21:05:00,
2013-03-25 17:10:00,42.3,26.3,28.65,North,6,0.0,0.0,53,0.00,,SKC,0.02,WeatherDisplay:10.37,2013-03-25 21:10:00,
2013-03-25 17:15:00,42.3,26.3,28.65,North,0,0.0,0.0,53,0.00,,SKC,0.02,WeatherDisplay:10.37,2013-03-25 21:15:00,
2013-03-25 17:20:00,42.3,26.3,28.64,North,0,0.0,0.0,53,0.00,,SKC,0.02,WeatherDisplay:10.37,2013-03-25 21:20:00,
2013-03-25 17:25:00,41.2,28.7,28.64,NW,315,0.0,0.0,61,0.00,,SKC,0.02,WeatherDisplay:10.37,2013-03-25 21:25:00,
2013-03-25 17:30:00,41.2,28.3,28.64,West,270,0.0,0.0,60,0.00,,SKC,0.02,WeatherDisplay:10.37,2013-03-25 21:30:00,
2013-03-25 17:35:00,41.2,27.9,28.65,South,180,0.0,0.0,59,0.00,,SKC,0.02,WeatherDisplay:10.37,2013-03-25 21:35:00,
2013-03-25 17:40:00,41.2,26.7,28.66,NW,315,0.0,0.0,56,0.00,,SKC,0.02,WeatherDisplay:10.37,2013-03-25 21:40:00,
2013-03-25 17:45:00,41.7,26.7,28.66,NW,315,0.0,0.0,55,0.00,,SKC,0.02,WeatherDisplay:10.37,2013-03-25 21:45:00,
2013-03-25 17:50:00,41.7,26.3,28.66,NW,315,0.0,0.0,54,0.00,,SKC,0.02,WeatherDisplay:10.37,2013-03-25 21:50:00,
2013-03-25 17:55:00,41.7,26.3,28.66,NW,315,0.0,0.0,54,0.00,,SKC,0.02,WeatherDisplay:10.37,2013-03-25 21:55:00,
2013-03-25 18:00:00,41.7,26.3,28.66,NNW,333,0.0,0.0,54,0.00,,SKC,0.02,WeatherDisplay:10.37,2013-03-25 22:00:00,
2013-03-25 18:05:00,41.0,26.1,28.67,East,90,0.0,0.0,55,0.00,,SKC,0.02,WeatherDisplay:10.37,2013-03-25 22:05:00,
2013-03-25 18:10:00,40.9,25.9,28.67,East,84,0.0,0.0,55,0.00,,SKC,0.02,WeatherDisplay:10.37,2013-03-25 22:10:00,
2013-03-25 18:15:00,40.5,25.5,28.68,East,90,0.0,0.0,55,0.00,,SKC,0.02,WeatherDisplay:10.37,2013-03-25 22:15:00,
2013-03-25 18:20:00,40.3,26.2,28.68,South,180,0.0,0.0,57,0.00,,SKC,0.02,WeatherDisplay:10.37,2013-03-25 22:20:00,
2013-03-25 18:25:00,40.5,26.4,28.68,NW,315,0.0,0.0,57,0.00,,SKC,0.02,WeatherDisplay:10.37,2013-03-25 22:25:00,
2013-03-25 18:30:00,40.3,26.3,28.69,SSE,168,0.0,0.0,57,0.00,,SKC,0.02,WeatherDisplay:10.37,2013-03-25 22:30:00,
2013-03-25 18:35:00,40.3,26.7,28.69,NW,315,0.0,0.0,58,0.00,,SKC,0.02,WeatherDisplay:10.37,2013-03-25 22:35:00,
2013-03-25 18:40:00,39.9,27.2,28.70,North,351,0.0,1.0,60,0.00,,SKC,0.02,WeatherDisplay:10.37,2013-03-25 22:40:00,
2013-03-25 18:45:00,39.7,27.0,28.70,East,90,0.0,0.0,60,0.00,,SKC,0.02,WeatherDisplay:10.37,2013-03-25 22:45:00,
2013-03-25 18:50:00,39.7,27.0,28.70,ENE,72,0.0,1.0,60,0.00,,SKC,0.02,WeatherDisplay:10.37,2013-03-25 22:50:00,
2013-03-25 18:55:00,38.8,27.7,28.71,North,0,0.0,0.0,64,0.00,,SKC,0.02,WeatherDisplay:10.37,2013-03-25 22:55:00,
2013-03-25 19:00:00,38.3,28.3,28.72,North,0,1.1,0.0,67,0.00,,SKC,0.02,WeatherDisplay:10.37,2013-03-25 23:00:00,
2013-03-25 19:05:00,38.3,28.3,28.72,North,0,0.0,0.0,67,0.00,,SKC,0.02,WeatherDisplay:10.37,2013-03-25 23:05:00,
2013-03-25 19:10:00,38.3,28.3,28.73,North,0,0.0,0.0,67,0.00,,SKC,0.02,WeatherDisplay:10.37,2013-03-25 23:10:00,
2013-03-25 19:15:00,36.9,29.3,28.73,North,0,2.3,0.0,74,0.00,,SKC,0.02,WeatherDisplay:10.37,2013-03-25 23:15:00,
2013-03-25 19:20:00,36.7,27.8,28.73,NW,315,2.3,0.0,70,0.00,,SKC,0.02,WeatherDisplay:10.37,2013-03-25 23:20:00,
2013-03-25 19:25:00,36.7,27.8,28.74,NW,315,2.3,0.0,70,0.00,,SKC,0.02,WeatherDisplay:10.37,2013-03-25 23:25:00,
2013-03-25 19:30:00,36.7,27.8,28.74,NNE,16,2.3,0.0,70,0.00,,SKC,0.02,WeatherDisplay:10.37,2013-03-25 23:30:00,
2013-03-25 19:35:00,36.7,27.8,28.74,North,0,2.3,0.0,70,0.00,,SKC,0.02,WeatherDisplay:10.37,2013-03-25 23:35:00,
2013-03-25 19:40:00,36.7,27.8,28.74,North,0,2.3,0.0,70,0.00,,SKC,0.02,WeatherDisplay:10.37,2013-03-25 23:40:00,
2013-03-25 19:45:00,36.7,27.8,28.75,North,0,2.3,0.0,70,0.00,,SKC,0.02,WeatherDisplay:10.37,2013-03-25 23:45:00,
2013-03-25 19:50:00,36.7,27.8,28.75,North,0,2.3,0.0,70,0.00,,SKC,0.02,WeatherDisplay:10.37,2013-03-25 23:50:00,
2013-03-25 19:55:00,36.7,27.8,28.75,North,0,2.3,0.0,70,0.00,,SKC,0.02,WeatherDisplay:10.37,2013-03-25 23:55:00,
2013-03-25 20:00:00,36.7,27.8,28.75,North,0,2.3,0.0,70,0.00,,SKC,0.02,WeatherDisplay:10.37,2013-03-26 00:00:00,
2013-03-25 20:05:00,36.7,27.8,28.75,North,0,2.3,0.0,70,0.00,,SKC,0.02,WeatherDisplay:10.37,2013-03-26 00:05:00,
2013-03-25 20:10:00,36.7,27.8,28.76,North,0,2.3,0.0,70,0.00,,SKC,0.02,WeatherDisplay:10.37,2013-03-26 00:10:00,
2013-03-25 20:15:00,36.7,27.8,28.75,North,0,2.3,0.0,70,0.00,,SKC,0.02,WeatherDisplay:10.37,2013-03-26 00:15:00,
2013-03-25 20:20:00,36.7,27.8,28.76,North,0,2.3,0.0,70,0.00,,SKC,0.02,WeatherDisplay:10.37,2013-03-26 00:20:00,
2013-03-25 20:25:00,36.7,27.8,28.76,North,0,2.3,0.0,70,0.00,,SKC,0.02,WeatherDisplay:10.37,2013-03-26 00:25:00,
2013-03-25 20:30:00,36.7,27.8,28.76,North,0,2.3,0.0,70,0.00,,SKC,0.02,WeatherDisplay:10.37,2013-03-26 00:30:00,
2013-03-25 20:35:00,36.7,27.8,28.76,North,0,2.3,0.0,70,0.00,,SKC,0.02,WeatherDisplay:10.37,2013-03-26 00:35:00,
2013-03-25 20:40:00,36.7,27.8,28.77,North,0,2.3,0.0,70,0.00,,SKC,0.02,WeatherDisplay:10.37,2013-03-26 00:40:00,
2013-03-25 20:45:00,36.7,27.8,28.77,North,0,2.3,0.0,70,0.00,,SKC,0.02,WeatherDisplay:10.37,2013-03-26 00:45:00,
2013-03-25 20:50:00,36.7,27.8,28.77,North,0,2.3,0.0,70,0.00,,SKC,0.02,WeatherDisplay:10.37,2013-03-26 00:50:00,
2013-03-25 20:55:00,36.7,27.8,28.77,North,0,2.3,0.0,70,0.00,,SKC,0.02,WeatherDisplay:10.37,2013-03-26 00:55:00,
2013-03-25 21:01:00,36.7,27.8,28.78,North,0,2.3,0.0,70,0.00,,SKC,0.02,WeatherDisplay:10.37,2013-03-26 01:01:00,
2013-03-25 21:06:00,36.7,27.8,28.78,North,0,2.3,0.0,70,0.00,,SKC,0.02,WeatherDisplay:10.37,2013-03-26 01:06:00,
2013-03-25 21:12:00,36.7,27.8,28.79,North,0,2.3,0.0,70,0.00,,SKC,0.02,WeatherDisplay:10.37,2013-03-26 01:12:00,
2013-03-25 21:17:00,36.7,27.8,28.79,North,0,2.3,0.0,70,0.00,,SKC,0.02,WeatherDisplay:10.37,2013-03-26 01:17:00,
2013-03-25 21:22:00,34.7,28.2,28.79,West,270,1.1,0.0,77,0.00,,SKC,0.02,WeatherDisplay:10.37,2013-03-26 01:22:00,
2013-03-25 21:27:00,34.7,27.9,28.79,SE,135,0.0,0.0,76,0.00,,SKC,0.02,WeatherDisplay:10.37,2013-03-26 01:27:00,
2013-03-25 21:32:00,34.7,27.9,28.80,SE,135,1.1,0.0,76,0.00,,SKC,0.02,WeatherDisplay:10.37,2013-03-26 01:32:00,
2013-03-25 21:37:00,34.7,27.9,28.80,North,6,1.1,0.0,76,0.00,,SKC,0.02,WeatherDisplay:10.37,2013-03-26 01:37:00,
2013-03-25 21:42:00,34.7,27.9,28.80,North,0,1.1,0.0,76,0.00,,SKC,0.02,WeatherDisplay:10.37,2013-03-26 01:42:00,
2013-03-25 21:47:00,34.7,27.9,28.80,North,0,1.1,0.0,76,0.00,,SKC,0.02,WeatherDisplay:10.37,2013-03-26 01:47:00,
2013-03-25 21:52:00,34.7,27.9,28.81,North,0,1.1,0.0,76,0.00,,SKC,0.02,WeatherDisplay:10.37,2013-03-26 01:52:00,
2013-03-25 21:57:00,34.7,27.9,28.81,North,0,1.1,0.0,76,0.00,,SKC,0.02,WeatherDisplay:10.37,2013-03-26 01:57:00,
2013-03-25 22:02:00,34.2,27.1,28.81,NE,45,0.0,0.0,75,0.00,,SKC,0.02,WeatherDisplay:10.37,2013-03-26 02:02:00,
2013-03-25 22:07:00,34.5,26.8,28.81,SW,225,1.1,0.0,73,0.00,,SKC,0.02,WeatherDisplay:10.37,2013-03-26 02:07:00,
2013-03-25 22:12:00,34.5,26.8,28.81,SW,225,1.1,0.0,73,0.00,,SKC,0.02,WeatherDisplay:10.37,2013-03-26 02:12:00,
2013-03-25 22:17:00,34.5,26.8,28.81,North,0,1.1,0.0,73,0.00,,SKC,0.02,WeatherDisplay:10.37,2013-03-26 02:17:00,
2013-03-25 22:22:00,34.7,24.9,28.81,East,90,0.0,0.0,67,0.00,,SKC,0.02,WeatherDisplay:10.37,2013-03-26 02:22:00,
2013-03-25 22:27:00,34.7,24.9,28.81,East,90,0.0,0.0,67,0.00,,SKC,0.02,WeatherDisplay:10.37,2013-03-26 02:27:00,
2013-03-25 22:32:00,34.7,24.9,28.81,North,2,0.0,0.0,67,0.00,,SKC,0.02,WeatherDisplay:10.37,2013-03-26 02:32:00,
2013-03-25 22:37:00,34.9,23.6,28.82,South,180,0.0,0.0,63,0.00,,SKC,0.02,WeatherDisplay:10.37,2013-03-26 02:37:00,
2013-03-25 22:42:00,34.9,23.6,28.82,South,180,0.0,0.0,63,0.00,,SKC,0.02,WeatherDisplay:10.37,2013-03-26 02:42:00,
2013-03-25 22:47:00,35.1,23.3,28.82,ESE,112,0.0,0.0,62,0.00,,SKC,0.02,WeatherDisplay:10.37,2013-03-26 02:47:00,
2013-03-25 22:52:00,35.1,23.3,28.82,ESE,112,0.0,0.0,62,0.00,,SKC,0.02,WeatherDisplay:10.37,2013-03-26 02:52:00,
2013-03-25 22:58:00,35.1,23.3,28.82,North,5,0.0,0.0,62,0.00,,SKC,0.02,WeatherDisplay:10.37,2013-03-26 02:58:00,
2013-03-25 23:03:00,35.1,23.3,28.82,South,180,1.1,0.0,62,0.00,,SKC,0.02,WeatherDisplay:10.37,2013-03-26 03:03:00,
2013-03-25 23:08:00,35.1,23.3,28.83,NW,315,1.1,0.0,62,0.00,,SKC,0.02,WeatherDisplay:10.37,2013-03-26 03:08:00,
2013-03-25 23:13:00,35.1,23.3,28.83,NW,315,1.1,0.0,62,0.00,,SKC,0.02,WeatherDisplay:10.37,2013-03-26 03:13:00,
2013-03-25 23:18:00,35.1,23.3,28.82,NW,315,1.1,0.0,62,0.00,,SKC,0.02,WeatherDisplay:10.37,2013-03-26 03:18:00,
2013-03-25 23:23:00,35.1,23.3,28.83,NNE,14,1.1,0.0,62,0.00,,SKC,0.02,WeatherDisplay:10.37,2013-03-26 03:23:00,
2013-03-25 23:28:00,35.1,23.3,28.82,North,0,1.1,0.0,62,0.00,,SKC,0.02,WeatherDisplay:10.37,2013-03-26 03:28:00,
2013-03-25 23:33:00,35.1,23.3,28.82,North,0,1.1,0.0,62,0.00,,SKC,0.02,WeatherDisplay:10.37,2013-03-26 03:33:00,
2013-03-25 23:38:00,35.1,23.3,28.82,North,0,1.1,0.0,62,0.00,,SKC,0.02,WeatherDisplay:10.37,2013-03-26 03:38:00,
2013-03-25 23:43:00,35.1,23.3,28.83,North,0,1.1,0.0,62,0.00,,SKC,0.02,WeatherDisplay:10.37,2013-03-26 03:43:00,
2013-03-25 23:48:00,35.1,23.3,28.83,South,180,1.1,0.0,62,0.00,,SKC,0.02,WeatherDisplay:10.37,2013-03-26 03:48:00,
2013-03-25 23:53:00,35.1,23.3,28.83,South,180,1.1,0.0,62,0.00,,SKC,0.02,WeatherDisplay:10.37,2013-03-26 03:53:00,
2013-03-25 23:58:00,35.2,23.1,28.83,North,0,1.1,0.0,61,0.00,,SKC,0.02,WeatherDisplay:10.37,2013-03-26 03:58:00,